Map

Track Data

SID SEASON NUMBER BASIN SUBBASIN NAME ISO_TIME NATURE LAT LON WMO_WIND WMO_PRES WMO_AGENCY TRACK_TYPE DIST2LAND LANDFALL IFLAG USA_AGENCY USA_ATCF_ID USA_LAT USA_LON USA_RECORD USA_STATUS USA_WIND USA_PRES USA_SSHS USA_R34_NE USA_R34_SE USA_R34_SW USA_R34_NW USA_R50_NE USA_R50_SE USA_R50_SW USA_R50_NW USA_R64_NE USA_R64_SE USA_R64_SW USA_R64_NW USA_POCI USA_ROCI USA_RMW USA_EYE TOKYO_LAT TOKYO_LON TOKYO_GRADE TOKYO_WIND TOKYO_PRES TOKYO_R50_DIR TOKYO_R50_LONG TOKYO_R50_SHORT TOKYO_R30_DIR TOKYO_R30_LONG TOKYO_R30_SHORT TOKYO_LAND CMA_LAT CMA_LON CMA_CAT CMA_WIND CMA_PRES HKO_LAT HKO_LON HKO_CAT HKO_WIND HKO_PRES NEWDELHI_LAT NEWDELHI_LON NEWDELHI_GRADE NEWDELHI_WIND NEWDELHI_PRES NEWDELHI_CI NEWDELHI_DP NEWDELHI_POCI REUNION_LAT REUNION_LON REUNION_TYPE REUNION_WIND REUNION_PRES REUNION_TNUM REUNION_CI REUNION_RMW REUNION_R34_NE REUNION_R34_SE REUNION_R34_SW REUNION_R34_NW REUNION_R50_NE REUNION_R50_SE REUNION_R50_SW REUNION_R50_NW REUNION_R64_NE REUNION_R64_SE REUNION_R64_SW REUNION_R64_NW BOM_LAT BOM_LON BOM_TYPE BOM_WIND BOM_PRES BOM_TNUM BOM_CI BOM_RMW BOM_R34_NE BOM_R34_SE BOM_R34_SW BOM_R34_NW BOM_R50_NE BOM_R50_SE BOM_R50_SW BOM_R50_NW BOM_R64_NE BOM_R64_SE BOM_R64_SW BOM_R64_NW BOM_ROCI BOM_POCI BOM_EYE BOM_POS_METHOD BOM_PRES_METHOD NADI_LAT NADI_LON NADI_CAT NADI_WIND NADI_PRES WELLINGTON_LAT WELLINGTON_LON WELLINGTON_WIND WELLINGTON_PRES DS824_LAT DS824_LON DS824_STAGE DS824_WIND DS824_PRES TD9636_LAT TD9636_LON TD9636_STAGE TD9636_WIND TD9636_PRES TD9635_LAT TD9635_LON TD9635_WIND TD9635_PRES TD9635_ROCI NEUMANN_LAT NEUMANN_LON NEUMANN_CLASS NEUMANN_WIND NEUMANN_PRES MLC_LAT MLC_LON MLC_CLASS MLC_WIND MLC_PRES USA_GUST BOM_GUST BOM_GUST_PER REUNION_GUST REUNION_GUST_PER USA_SEAHGT USA_SEARAD_NE USA_SEARAD_SE USA_SEARAD_SW USA_SEARAD_NW STORM_SPEED STORM_DIR
1975110S15104 1975 36 SI WA CLARA 1975-04-20 00:00:00 TS -14.6000 104.000 main 847 847 O_________O___ jtwc_sh SH321975 -14.6000 104.000 -1 -14.6000 104.000 4 4 131
1975110S15104 1975 36 SI WA CLARA 1975-04-20 01:00:00 TS -14.6516 104.052 25 1003 bom main 855 855 P_________P___ SH321975 -14.6543 104.053 -1 -14.6461 104.049 4 4 136
1975110S15104 1975 36 SI WA CLARA 1975-04-20 03:00:00 TS -14.7526 104.153 main 862 862 P_________P___ SH321975 -14.7600 104.157 -1 -14.7376 104.145 4 4 135
1975110S15104 1975 36 SI WA CLARA 1975-04-20 04:00:00 TS -14.8008 104.202 25 1002 bom main 862 862 P_________P___ SH321975 -14.8099 104.207 -1 -14.7826 104.192 4 4 135
1975110S15104 1975 36 SI WA CLARA 1975-04-20 06:00:00 TS -14.8900 104.294 main 870 870 O_________P___ jtwc_sh SH321975 -14.9000 104.300 -1 -14.8701 104.282 4 4 134
1975110S15104 1975 36 SI WA CLARA 1975-04-20 07:00:00 TS -14.9301 104.336 25 1000 bom main 870 867 P_________P___ SH321975 -14.9390 104.342 -1 -14.9123 104.325 4 3 135
1975110S15104 1975 36 SI WA CLARA 1975-04-20 09:00:00 TS -15.0025 104.411 main 878 878 P_________P___ SH321975 -15.0075 104.415 -1 -14.9926 104.403 4 3 136
1975110S15104 1975 36 SI WA CLARA 1975-04-20 10:00:00 TS -15.0359 104.444 30 999 bom main 878 876 P_________P___ SH321975 -15.0388 104.447 -1 -15.0303 104.439 4 3 138
1975110S15104 1975 36 SI WA CLARA 1975-04-20 12:00:00 TS -15.1000 104.500 main 886 886 O_________O___ jtwc_sh SH321975 -15.1000 104.500 -1 -15.1000 104.500 4 2 141
1975110S15104 1975 36 SI WA CLARA 1975-04-20 13:00:00 TS -15.1328 104.523 30 998 bom main 886 886 P_________P___ SH321975 -15.1333 104.522 -1 -15.1317 104.526 4 2 150
1975110S15104 1975 36 SI WA CLARA 1975-04-20 15:00:00 TS -15.1970 104.561 main 895 895 P_________P___ SH321975 -15.2000 104.558 -1 -15.1909 104.568 4 2 149
1975110S15104 1975 36 SI WA CLARA 1975-04-20 16:00:00 TS -15.2287 104.576 30 996 bom main 895 895 P_________P___ SH321975 -15.2333 104.572 -1 -15.2194 104.585 4 2 156
1975110S15104 1975 36 SI WA CLARA 1975-04-20 18:00:00 TS -15.2925 104.605 main 906 906 O_________P___ jtwc_sh SH321975 -15.3000 104.600 -1 -15.2774 104.615 4 2 163
1975110S15104 1975 36 SI WA CLARA 1975-04-20 19:00:00 TS -15.3214 104.619 35 995 bom main 906 906 P_________P___ SH321975 -15.3281 104.614 -1 -15.3080 104.629 4 2 157
1975110S15104 1975 36 SI WA CLARA 1975-04-20 21:00:00 TS -15.3818 104.647 main 917 914 P_________P___ SH321975 -15.3850 104.643 -1 -15.3753 104.655 4 2 155
1975110S15104 1975 36 SI WA CLARA 1975-04-20 22:00:00 TS -15.4160 104.662 35 995 bom main 914 914 P_________P___ SH321975 -15.4175 104.659 -1 -15.4131 104.669 4 3 154
1975110S15104 1975 36 SI WA CLARA 1975-04-21 00:00:00 TS -15.5000 104.700 main 925 925 O_________O___ jtwc_sh SH321975 -15.5000 104.700 -1 -15.5000 104.700 4 3 155
1975110S15104 1975 36 SI WA CLARA 1975-04-21 01:00:00 TS -15.5550 104.728 40 994 bom main 936 934 P_________P___ SH321975 -15.5553 104.730 -1 -15.5545 104.723 4 4 154
1975110S15104 1975 36 SI WA CLARA 1975-04-21 03:00:00 TS -15.6818 104.791 main 945 945 P_________P___ SH321975 -15.6850 104.800 -1 -15.6753 104.772 4 4 157
1975110S15104 1975 36 SI WA CLARA 1975-04-21 04:00:00 TS -15.7507 104.823 40 994 bom main 956 954 P_________P___ SH321975 -15.7558 104.836 -1 -15.7405 104.797 4 5 158
1975110S15104 1975 36 SI WA CLARA 1975-04-21 06:00:00 TS -15.8925 104.883 main 965 965 O_________P___ jtwc_sh SH321975 -15.9000 104.900 -1 -15.8775 104.850 4 5 160
1975110S15104 1975 36 SI WA CLARA 1975-04-21 07:00:00 TS -15.9605 104.907 40 993 bom main 976 976 P_________P___ SH321975 -15.9667 104.922 -1 -15.9482 104.876 4 4 164
1975110S15104 1975 36 SI WA CLARA 1975-04-21 09:00:00 TS -16.0970 104.948 main 987 986 P_________P___ SH321975 -16.1000 104.958 -1 -16.0910 104.928 4 4 164
1975110S15104 1975 36 SI WA CLARA 1975-04-21 10:00:00 TS -16.1651 104.966 40 992 bom main 997 997 P_________P___ SH321975 -16.1667 104.972 -1 -16.1619 104.953 4 4 166
1975110S15104 1975 36 SI WA CLARA 1975-04-21 12:00:00 TS -16.3000 105.000 main 1008 1008 O_________O___ jtwc_sh SH321975 -16.3000 105.000 -1 -16.3000 105.000 4 4 165
1975110S15104 1975 36 SI WA CLARA 1975-04-21 13:00:00 TS -16.3676 105.018 40 991 bom main 1019 1019 P_________P___ SH321975 -16.3693 105.017 -1 -16.3641 105.021 4 4 165
1975110S15104 1975 36 SI WA CLARA 1975-04-21 15:00:00 TS -16.5018 105.054 main 1028 1028 P_________P___ SH321975 -16.5075 105.050 -1 -16.4903 105.061 4 4 166
1975110S15104 1975 36 SI WA CLARA 1975-04-21 16:00:00 TS -16.5671 105.071 45 990 bom main 1038 1038 P_________P___ SH321975 -16.5746 105.067 -1 -16.5521 105.080 4 4 163
1975110S15104 1975 36 SI WA CLARA 1975-04-21 18:00:00 TS -16.6908 105.105 main 1049 1049 O_________P___ jtwc_sh SH321975 -16.7000 105.100 -1 -16.6725 105.115 4 4 166
1975110S15104 1975 36 SI WA CLARA 1975-04-21 19:00:00 TS -16.7474 105.122 50 989 bom main 1049 1049 P_________P___ SH321975 -16.7557 105.117 -1 -16.7309 105.131 4 3 165
1975110S15104 1975 36 SI WA CLARA 1975-04-21 21:00:00 TS -16.8528 105.154 main 1068 1068 P_________P___ SH321975 -16.8575 105.150 -1 -16.8434 105.161 4 3 169
1975110S15104 1975 36 SI WA CLARA 1975-04-21 22:00:00 TS -16.9027 105.169 50 989 bom main 1068 1068 P_________P___ SH321975 -16.9054 105.167 -1 -16.8974 105.175 4 3 164
1975110S15104 1975 36 SI WA CLARA 1975-04-22 00:00:00 TS -17.0000 105.200 main 1072 1072 O_________O___ jtwc_sh SH321975 -17.0000 105.200 -1 -17.0000 105.200 4 3 164
1975110S15104 1975 36 SI WA CLARA 1975-04-22 01:00:00 TS -17.0500 105.216 50 988 bom main 1072 1066 P_________P___ SH321975 -17.0526 105.219 -1 -17.0447 105.209 4 3 164
1975110S15104 1975 36 SI WA CLARA 1975-04-22 03:00:00 TS -17.1474 105.246 main 1066 1051 P_________P___ SH321975 -17.1575 105.257 -1 -17.1272 105.224 4 3 167
1975110S15104 1975 36 SI WA CLARA 1975-04-22 04:00:00 TS -17.1940 105.260 50 987 bom main 1051 1051 P_________P___ SH321975 -17.2079 105.275 -1 -17.1661 105.231 4 1 0
1975110S15104 1975 36 SI WA CLARA 1975-04-22 06:00:00 TS -17.1669 105.221 main 1061 1061 O_________P_O_ jtwc_sh SH321975 -17.3000 105.300 -1 -17.2425 105.243 4 -15.8000 104.500 TC 50 987 5 335
1975110S15104 1975 36 SI WA CLARA 1975-04-22 07:00:00 TS -16.9820 105.158 50 986 bom main 1072 1071 P_____O___P_P_ SH321975 -17.3364 105.303 -1 -16.0000 105.000 30 50 986 3.50000 -17.2810 105.249 4 -15.9280 104.572 TC 50 986 4 342
1975110S15104 1975 36 SI WA CLARA 1975-04-22 09:00:00 TS -16.9677 105.153 main 1072 1072 P_____P___P_P_ SH321975 -17.4000 105.300 -1 -16.2642 105.067 30 50 986 -17.3615 105.265 4 -16.1876 104.712 TC 52 986 1 322
1975110S15104 1975 36 SI WA CLARA 1975-04-22 10:00:00 TS -16.9510 105.149 50 986 bom main 1081 1066 P_____O___P_P_ SH321975 -17.4309 105.298 -1 -16.4000 105.100 30 50 986 3.50000 -17.4048 105.275 4 -16.3210 104.779 TC 53 985 2 160
1975110S15104 1975 36 SI WA CLARA 1975-04-22 12:00:00 TS -17.0791 105.194 main 1066 1066 O_____P__OO_O_ jtwc_sh SH321975 -17.5000 105.300 -1 -16.6746 105.167 30 50 985 -16.7000 105.200 TC 55 985 -17.5000 105.300 4 -16.6000 104.900 TC 55 985 4 163
1975110S15104 1975 36 SI WA CLARA 1975-04-22 13:00:00 TS -17.1618 105.221 50 985 bom main 1061 1046 P_____O__PP_P_ SH321975 -17.5390 105.308 -1 -16.8000 105.200 30 50 985 3.50000 -16.7790 105.246 TC 54 985 -17.5504 105.313 4 -16.7469 104.953 TC 55 985 5 162
1975110S15104 1975 36 SI WA CLARA 1975-04-22 15:00:00 TS -17.3223 105.276 main 1046 1040 P_____P__PP_P_ SH321975 -17.6275 105.335 -1 -17.0133 105.267 30 50 985 -16.9400 105.330 TC 52 986 -17.6581 105.345 4 -17.0500 105.050 TC 55 985 5 161
1975110S15104 1975 36 SI WA CLARA 1975-04-22 16:00:00 TS -17.4016 105.304 50 986 bom main 1040 1025 P_____O__PP_P_ SH321975 -17.6788 105.353 -1 -17.1000 105.300 30 50 986 3.50000 -17.0235 105.363 TC 51 986 -17.7157 105.363 4 -17.2024 105.098 TC 55 985 5 159
1975110S15104 1975 36 SI WA CLARA 1975-04-22 18:00:00 TS -17.5618 105.365 main 1020 1020 O_____P__OP_O_ jtwc_sh SH321975 -17.8000 105.400 -1 -17.2309 105.382 30 50 986 -17.2000 105.400 TC 50 987 -17.8399 105.405 4 -17.5000 105.200 TC 55 986 5 162
1975110S15104 1975 36 SI WA CLARA 1975-04-22 19:00:00 TS -17.6461 105.390 50 987 bom main 1020 1009 P_____O__PP_P_ SH321975 -17.8693 105.425 -1 -17.3000 105.400 30 50 987 3.50000 -17.2947 105.401 TC 50 987 -17.9069 105.430 4 -17.6364 105.261 TC 54 986 6 167
1975110S15104 1975 36 SI WA CLARA 1975-04-22 21:00:00 TS -17.8318 105.426 main 1009 1003 P_____P__PP_P_ SH321975 -18.0275 105.485 -1 -17.4788 105.321 30 50 987 -17.5050 105.385 TC 50 987 -18.0518 105.488 4 -17.9000 105.393 TC 52 986 6 168
1975110S15104 1975 36 SI WA CLARA 1975-04-22 22:00:00 TS -17.9357 105.451 50 988 bom main 994 982 P_____O__PP_P_ SH321975 -18.1146 105.520 -1 -17.6000 105.300 30 50 988 3.50000 -17.6242 105.380 TC 50 987 -18.1302 105.522 4 -18.0309 105.461 TC 51 986 7 163
1975110S15104 1975 36 SI WA CLARA 1975-04-23 00:00:00 TS -18.1704 105.536 main 976 961 O_____P__OO_O_ jtwc_sh SH321975 -18.3000 105.600 -1 -17.9225 105.417 30 50 988 -17.9000 105.400 TC 50 988 -18.3000 105.600 4 -18.3000 105.600 TC 50 987 8 160
1975110S15104 1975 36 SI WA CLARA 1975-04-23 01:00:00 TS -18.2960 105.590 50 988 bom main 961 941 P_____O__PP_P_ SH321975 -18.3917 105.642 -1 -18.1000 105.500 30 50 988 3.50000 -18.0605 105.444 TC 50 988 -18.3855 105.646 4 -18.4469 105.667 TC 50 987 8 158
1975110S15104 1975 36 SI WA CLARA 1975-04-23 03:00:00 TS -18.5557 105.704 main 935 920 P_____P__PP_P_ SH321975 -18.5850 105.735 -1 -18.4254 105.633 30 50 988 -18.4201 105.570 TC 50 988 -18.5689 105.750 4 -18.7500 105.800 TC 50 988 9 157
1975110S15104 1975 36 SI WA CLARA 1975-04-23 04:00:00 TS -18.6924 105.765 50 989 bom main 920 895 P_____O__PP_P_ SH321975 -18.6866 105.787 -1 -18.6000 105.700 30 50 989 3.50000 3.50000 -18.6117 105.645 TC 50 988 -18.6668 105.807 4 -18.9025 105.867 TC 50 988 9 157
1975110S15104 1975 36 SI WA CLARA 1975-04-23 06:00:00 TS -18.9783 105.895 main 895 890 O_____P__OP_O_ jtwc_sh SH321975 -18.9000 105.900 -1 -18.9946 105.841 30 50 989 -19.0000 105.800 TC 50 989 -18.8752 105.927 4 -19.2000 106.000 TC 50 989 9 157
1975110S15104 1975 36 SI WA CLARA 1975-04-23 07:00:00 TS -19.1203 105.958 50 989 bom main 881 856 P_____O__PP_P_ SH321975 -19.0057 105.964 -1 -19.2000 105.900 30 50 989 3.50000 -19.1859 105.864 TC 49 989 -18.9856 105.990 4 -19.3390 106.069 TC 49 989 9 158
1975110S15104 1975 36 SI WA CLARA 1975-04-23 09:00:00 TS -19.4078 106.079 main 856 851 P_____P__PP_P_ SH321975 -19.2275 106.100 -1 -19.6079 105.956 30 46 989 -19.5574 105.993 TC 47 990 -19.2189 106.116 4 -19.6075 106.208 TC 47 989 9 158
1975110S15104 1975 36 SI WA CLARA 1975-04-23 10:00:00 TS -19.5521 106.142 45 990 bom main 846 818 P_____O__PP_P_ SH321975 -19.3455 106.169 -1 -19.8000 106.000 30 45 990 3.00000 -19.7412 106.059 TC 46 990 -19.3417 106.179 4 -19.7388 106.275 TC 46 989 10 156
1975110S15104 1975 36 SI WA CLARA 1975-04-23 12:00:00 TS -19.8411 106.282 main 818 809 O_____P__OO_O_ jtwc_sh SH321975 -19.6000 106.300 -1 -20.1467 106.189 30 45 990 -20.1000 106.200 TC 45 991 -19.6000 106.300 4 -20.0000 106.400 TC 45 990 10 156
1975110S15104 1975 36 SI WA CLARA 1975-04-23 13:00:00 TS -19.9888 106.352 45 991 bom main 800 778 P_____O__PP_P_ SH321975 -19.7386 106.356 -1 -20.3000 106.300 30 45 991 3.00000 -20.2829 106.285 TC 45 991 -19.7369 106.355 4 -20.1359 106.458 TC 45 990 10 156
1975110S15104 1975 36 SI WA CLARA 1975-04-23 15:00:00 TS -20.2829 106.487 main 778 774 P_____P__PP_P_ SH321975 -20.0350 106.458 -1 -20.5563 106.516 30 41 991 -20.6376 106.465 TC 45 991 -20.0262 106.461 4 -20.4075 106.565 TC 45 991 10 157
1975110S15104 1975 36 SI WA CLARA 1975-04-23 16:00:00 TS -20.4333 106.548 40 992 bom main 774 753 P_____O__PP_P_ SH321975 -20.1891 106.506 -1 -20.7000 106.600 30 40 992 3.00000 -20.8038 106.551 TC 45 991 -20.1767 106.513 4 -20.5412 106.613 TC 45 991 10 161
1975110S15104 1975 36 SI WA CLARA 1975-04-23 18:00:00 TS -20.7470 106.649 main 753 737 O_____P__OP_O_ jtwc_sh SH321975 -20.5000 106.600 -1 -21.0970 106.678 30 40 992 -21.1000 106.700 TC 45 992 -20.4850 106.615 4 -20.8000 106.700 TC 45 992 10 164
1975110S15104 1975 36 SI WA CLARA 1975-04-23 19:00:00 TS -20.8972 106.692 40 992 bom main 737 718 P_____O__PP_P_ SH321975 -20.6526 106.653 -1 -21.3000 106.700 30 40 992 3.00000 -21.2175 106.748 TC 44 992 -20.6408 106.665 4 -20.9197 106.734 TC 44 992 9 165
1975110S15104 1975 36 SI WA CLARA 1975-04-23 21:00:00 TS -21.1862 106.775 main 718 715 P_____P__PP_P_ SH321975 -20.9575 106.758 -1 -21.6862 106.767 30 40 992 -21.4149 106.815 TC 42 993 -20.9512 106.761 4 -21.1499 106.793 TC 42 992 9 165
1975110S15104 1975 36 SI WA CLARA 1975-04-23 22:00:00 TS -21.3150 106.815 40 993 bom main 715 701 P_____O__PP_P_ SH321975 -21.1079 106.808 -1 -21.8000 106.800 30 40 993 3.00000 -21.5059 106.842 TC 41 993 -21.1040 106.808 4 -21.2641 106.823 TC 41 992 7 162
1975110S15104 1975 36 SI WA CLARA 1975-04-24 00:00:00 TS -21.5198 106.893 main 701 698 O_____P__OO_O_ jtwc_sh SH321975 -21.4000 106.900 -1 -21.7185 106.859 30 40 993 -21.7000 106.900 TC 40 994 -21.4000 106.900 4 -21.5000 106.900 TC 40 993 7 160
1975110S15104 1975 36 SI WA CLARA 1975-04-24 01:00:00 TS -21.6278 106.936 40 994 bom main 698 683 P_____O__PP_P_ SH321975 -21.5416 106.937 -1 -21.7000 106.900 30 40 994 3.00000 3.00000 -21.8219 106.944 TC 39 994 -21.5338 106.940 4 -21.6277 106.960 TC 40 993 8 161
1975110S15104 1975 36 SI WA CLARA 1975-04-24 03:00:00 TS -21.9014 107.031 main 683 671 P_____P__PP_P_ SH321975 -21.8150 107.000 -1 -22.0086 107.028 30 40 994 -22.0850 107.042 TC 37 995 -21.7923 107.017 4 -21.8926 107.100 TC 40 994 9 163
1975110S15104 1975 36 SI WA CLARA 1975-04-24 04:00:00 TS -22.0436 107.080 40 995 bom main 671 658 P_____O__PP_P_ SH321975 -21.9466 107.031 -1 -22.2000 107.100 30 40 995 3.00000 -22.2225 107.095 TC 36 995 -21.9180 107.054 4 -22.0280 107.171 TC 40 994 9 161
1975110S15104 1975 36 SI WA CLARA 1975-04-24 06:00:00 TS -22.3061 107.178 main 658 657 O_____P__OP_O_ jtwc_sh SH321975 -22.2000 107.100 -1 -22.4721 107.241 30 36 995 -22.5000 107.200 TC 35 996 -22.1647 107.129 4 -22.3000 107.300 TC 40 995 8 161
1975110S15104 1975 36 SI WA CLARA 1975-04-24 07:00:00 TS -22.4317 107.224 35 996 bom main 657 646 P_____O__PP_P_ SH321975 -22.3197 107.142 -1 -22.6000 107.300 30 35 996 3.00000 -22.6307 107.255 TC 34 996 -22.2866 107.167 4 -22.4333 107.340 TC 39 995 8 162
1975110S15104 1975 36 SI WA CLARA 1975-04-24 09:00:00 TS -22.6815 107.310 main 646 644 P_____P__PP_P_ SH321975 -22.5500 107.235 -1 -22.8667 107.372 30 31 996 -22.8925 107.365 TC 32 997 -22.5298 107.251 4 -22.6999 107.400 TC 37 996 8 162
1975110S15104 1975 36 SI WA CLARA 1975-04-24 10:00:00 TS -22.8065 107.353 30 997 bom main 634 629 P_____O__PP_P_ SH321975 -22.6642 107.287 -1 -23.0000 107.400 20 30 997 2.50000 -23.0254 107.416 TC 31 997 -22.6520 107.297 4 -22.8333 107.429 TC 36 996 8 162
1975110S15104 1975 36 SI WA CLARA 1975-04-24 12:00:00 TS -23.0598 107.443 main 627 614 O_____P__OO_O_ jtwc_sh SH321975 -22.9000 107.400 -1 -23.2588 107.459 20 30 998 -23.3000 107.500 TC 30 999 -22.9000 107.400 4 -23.1000 107.500 TC 35 998 8 162
1975110S15104 1975 36 SI WA CLARA 1975-04-24 13:00:00 TS -23.1959 107.492 30 999 bom main 614 597 P_____O__PP_P_ SH321975 -23.0276 107.458 -1 -23.4000 107.500 20 30 999 2.50000 -23.4495 107.515 TC 30 999 -23.0374 107.463 4 -23.2333 107.555 TC 34 998 9 161
1975110S15104 1975 36 SI WA CLARA 1975-04-24 15:00:00 TS -23.4826 107.606 main 597 585 P_____P__PP_P_ SH321975 -23.2925 107.585 -1 -23.7358 107.651 20 26 999 -23.7574 107.528 TC 30 1000 -23.3173 107.600 4 -23.5000 107.685 TC 32 999 9 160
1975110S15104 1975 36 SI WA CLARA 1975-04-24 16:00:00 TS -23.6262 107.662 25 1000 bom main 585 580 P_____O__PP_P_ SH321975 -23.4279 107.653 -1 -23.9000 107.700 20 25 1000 2.00000 -23.9102 107.538 TC 30 1000 -23.4581 107.673 4 -23.6333 107.756 TC 31 999 9 162
1975110S15104 1975 36 SI WA CLARA 1975-04-24 18:00:00 TS -23.9029 107.755 main 570 569 O_____P__OP_O_ jtwc_sh SH321975 -23.7000 107.800 -1 -24.1799 107.602 20 25 1000 -24.2000 107.600 TC 30 1001 -23.7376 107.827 4 -23.9000 107.900 TC 30 1000 9 161
1975110S15104 1975 36 SI WA CLARA 1975-04-24 19:00:00 TS -24.0360 107.816 25 1001 bom main 569 546 P_____O__PP_P_ SH321975 -23.8412 107.880 -1 -24.3000 107.600 20 25 1001 2.00000 -24.3255 107.669 TC 29 1001 -23.8746 107.906 4 -24.0333 107.962 TC 29 1000 9 149
1975110S15104 1975 36 SI WA CLARA 1975-04-24 21:00:00 TS -24.2899 108.005 main 546 536 P_____P__PP_P_ SH321975 -24.1225 108.050 -1 -24.4977 107.924 20 25 1001 -24.5575 107.855 TC 27 1002 -24.1392 108.066 4 -24.2999 108.085 TC 27 1001 9 145
1975110S15104 1975 36 SI WA CLARA 1975-04-24 22:00:00 TS -24.4137 108.105 25 1002 bom main 536 516 P_____O__PP_P_ SH321975 -24.2571 108.136 -1 -24.6000 108.100 20 25 1002 2.00000 -24.6697 107.965 TC 26 1002 -24.2650 108.145 4 -24.4332 108.151 TC 26 1001 9 146
1975110S15104 1975 36 SI WA CLARA 1975-04-25 00:00:00 TS -24.6602 108.274 main 516 516 O_____P__OO_O_ jtwc_sh SH321975 -24.5000 108.300 -1 -24.8612 108.242 20 25 1002 -24.9000 108.200 TC 25 1003 -24.5000 108.300 4 -24.7000 108.300 TC 25 1002 9 149
1975110S15104 1975 36 SI WA CLARA 1975-04-25 01:00:00 TS -24.7774 108.349 25 1003 bom main 517 496 P_____O__PP_P_ SH321975 -24.6004 108.373 -1 -25.0000 108.300 20 25 1003 1.50000 1.50000 -25.0328 108.308 TC 25 1003 -24.5945 108.354 4 -24.8359 108.386 TC 25 1002 8 147
1975110S15104 1975 36 SI WA CLARA 1975-04-25 03:00:00 TS -24.9970 108.511 main 496 483 P_____P__PP_P_ SH321975 -24.7724 108.508 -1 -25.2587 108.487 20 25 1003 -25.3074 108.535 TC 25 1003 -24.7638 108.453 4 -25.1075 108.578 TC 25 1002 8 146
1975110S15104 1975 36 SI WA CLARA 1975-04-25 04:00:00 TS -25.1042 108.597 25 1003 bom main 483 459 P_____O__PP_P_ SH321975 -24.8496 108.572 -1 -25.4000 108.600 20 25 1003 1.50000 -25.4436 108.653 TC 25 1003 -24.8415 108.501 4 -25.2412 108.681 TC 25 1002 8 143
1975110S15104 1975 36 SI WA CLARA 1975-04-25 06:00:00 TS -25.3224 108.778 main 459 447 O_____P__OP_O_ jtwc_sh SH321975 -25.0000 108.700 -1 -25.7437 108.861 20 25 1003 -25.7000 108.900 TC 25 1003 -24.9910 108.606 4 -25.5000 108.900 TC 25 1003 8 143
1975110S15104 1975 36 SI WA CLARA 1975-04-25 07:00:00 TS -25.4255 108.868 25 1003 bom main 447 433 P_____O__PP_P_ SH321975 -25.0754 108.756 -1 -25.9000 109.000 20 25 1003 1.50000 -25.8114 109.025 TC 24 1003 -25.0657 108.665 4 -25.6249 109.006 TC 25 1003 8 139
1975110S15104 1975 36 SI WA CLARA 1975-04-25 09:00:00 TS -25.6126 109.055 main 423 422 P_____P__PP_P_ SH321975 -25.2273 108.870 -1 -26.1187 109.267 20 25 1003 -26.0149 109.285 TC 22 1003 -25.2228 108.806 4 -25.8648 109.228 TC 25 1003 8 137
1975110S15104 1975 36 SI WA CLARA 1975-04-25 10:00:00 TS -25.7029 109.155 25 1003 bom main 412 390 P_____O__PP_P_ SH321975 -25.3095 108.936 -1 -26.2000 109.400 20 25 1003 1.50000 -26.1107 109.420 TC 21 1003 -25.3081 108.891 4 -25.9799 109.346 TC 25 1003 8 133
1975110S15104 1975 36 SI WA CLARA 1975-04-25 12:00:00 TS -25.8885 109.376 main 390 379 O_____P__OO_O_ jtwc_sh SH321975 -25.5000 109.100 -1 -26.3308 109.659 20 25 1003 -26.3000 109.700 TC 20 1004 -25.5000 109.100 4 -26.2000 109.600 TC 25 1003 9 133
1975110S15104 1975 36 SI WA CLARA 1975-04-25 13:00:00 TS -25.9912 109.501 25 1004 bom main 379 348 P_____O__PP_P_ SH321975 -25.6134 109.195 -1 -26.4000 109.800 20 25 1004 1.50000 -26.4026 109.847 TC 20 1004 -25.6091 109.226 4 -26.3084 109.741 TC 24 1003 10 132
1975110S15104 1975 36 SI WA CLARA 1975-04-25 15:00:00 TS -26.2182 109.783 main 348 338 P_____P__PP_P_ SH321975 -25.8696 109.425 -1 -26.5946 110.136 20 25 1004 -26.6075 110.150 TC 20 1004 -25.8526 109.521 4 -26.5151 110.043 TC 22 1003 10 132
1975110S15104 1975 36 SI WA CLARA 1975-04-25 16:00:00 TS -26.3374 109.936 25 1004 bom main 338 309 P_____O__PP_P_ SH321975 -26.0088 109.565 -1 -26.7000 110.300 20 25 1004 1.50000 -26.7079 110.303 TC 20 1004 -25.9853 109.688 4 -26.6134 110.197 TC 21 1003 11 130
1975110S15104 1975 36 SI WA CLARA 1975-04-25 18:00:00 TS -26.5781 110.254 main 300 291 O_____P__OP_O_ jtwc_sh SH321975 -26.3000 109.900 -1 -26.8999 110.572 20 25 1004 -26.9000 110.600 TC 20 1004 -26.2685 110.051 4 -26.8000 110.500 TC 20 1004 11 130
1975110S15104 1975 36 SI WA CLARA 1975-04-25 19:00:00 TS -26.6989 110.421 25 1004 bom main 291 257 P_____O__PP_P_ SH321975 -26.4487 110.099 -1 -27.0000 110.700 20 25 1004 1.50000 -26.9902 110.742 TC 20 1004 -26.4172 110.246 4 -26.8884 110.643 TC 20 1004 12 128
1975110S15104 1975 36 SI WA CLARA 1975-04-25 21:00:00 TS -26.9553 110.785 main 260 250 P_____P__PP_P_ SH321975 -26.7485 110.549 -1 -27.2079 110.967 20 25 1004 -27.1601 111.012 TC 20 1004 -26.7250 110.655 4 -27.0576 110.915 TC 20 1004 12 128
1975110S15104 1975 36 SI WA CLARA 1975-04-25 22:00:00 TS -27.0787 110.968 25 1004 bom main 245 227 P_____O__PP_P_ SH321975 -26.8991 110.792 -1 -27.3000 111.100 20 25 1004 1.50000 -27.2414 111.143 TC 20 1004 -26.8824 110.867 4 -27.1394 111.045 TC 20 1004 12 126
1975110S15104 1975 36 SI WA CLARA 1975-04-26 00:00:00 TS -27.3118 111.333 main 227 219 O_____P__OO_O_ jtwc_sh SH321975 -27.2000 111.300 -1 -27.4413 111.367 20 21 1004 -27.4000 111.400 TC 20 1005 -27.2000 111.300 4 -27.3000 111.300 TC 20 1004 13 132
1975110S15104 1975 36 SI WA CLARA 1975-04-26 01:00:00 NR -27.5000 111.500 20 1005 bom main 223 ______O_______ SH321975 -1 -27.5000 111.500 20 20 1005 1.00000 TC 4 TC 14 141

About IBTrACS Database

This database is a web-friendly format of International Best Track Archive for Climate Stewardship (IBTrACS), a global best track data archive curated by NOAA dating back to 1842.

Updated: 2021-10-21